Time;durP1;ratioP1;P1;durP2;ratioP2;P2;SDS_P1;SDS_P2;PMS_P1;PMS_P2;Temp;Humidity;BMP_temperature;BMP_pressure;BME280_temperature;BME280_humidity;BME280_pressure;Samples;Min_cycle;Max_cycle;Signal;HPM_P1;HPM_P2
2022/04/04 04:45:56;;;;;;;;;;;;;;;1.69;78.49;100264.81;4954409;28;1123;-92
2022/04/04 04:48:26;;;;;;;;;;;;;;;1.69;78.51;100262.97;4954897;28;1409;-91
2022/04/04 04:53:54;;;;;;;;;;;;;;;1.65;78.43;100259.06;4955918;28;1362;-92
2022/04/04 04:56:19;;;;;;;;;;;;;;;1.65;78.55;100258.22;4954400;28;1965;-92
2022/04/04 04:58:45;;;;;;;;;;;;;;;1.66;78.68;100249.09;4954757;28;1281;-92
2022/04/04 05:01:13;;;;;;;;;;;;;;;1.66;78.38;100239.13;4948626;28;1336;-92
2022/04/04 05:04:07;;;;;;;;;;;;;;;1.68;78.18;100237.03;4935811;29;1278;-93
2022/04/04 05:06:34;;;;;;;;;;;;;;;1.68;77.78;100233.50;4935309;29;1277;-92
2022/04/04 05:09:08;;;;;;;;;;;;;;;1.73;77.63;100228.22;4947819;29;1383;-92
2022/04/04 05:11:36;;;;;;;;;;;;;;;1.77;78.15;100219.47;4951356;29;1425;-91
2022/04/04 05:14:01;;;;;;;;;;;;;;;1.78;78.14;100223.81;4936265;29;1288;-91
2022/04/04 05:16:30;;;;;;;;;;;;;;;1.78;76.29;100210.31;4955743;28;1956;-91
2022/04/04 05:18:58;;;;;;;;;;;;;;;1.81;76.73;100200.91;4956067;28;1443;-91
2022/04/04 05:21:25;;;;;;;;;;;;;;;1.80;76.99;100205.50;4958177;28;1140;-92
2022/04/04 05:23:59;;;;;;;;;;;;;;;1.83;77.44;100206.91;4958102;28;1387;-92
2022/04/04 05:26:30;;;;;;;;;;;;;;;1.86;77.00;100193.78;4958436;29;1399;-91
2022/04/04 05:28:55;;;;;;;;;;;;;;;1.90;76.97;100200.38;4958231;29;1288;-92
2022/04/04 05:31:21;;;;;;;;;;;;;;;1.95;77.30;100198.84;4958073;28;1392;-92
2022/04/04 05:33:46;;;;;;;;;;;;;;;1.96;76.77;100193.19;4957807;28;1533;-91
2022/04/04 05:36:14;;;;;;;;;;;;;;;2.00;76.47;100190.88;4959235;28;1010;-91
2022/04/04 05:38:39;;;;;;;;;;;;;;;2.00;76.36;100198.97;4957826;29;1411;-91
2022/04/04 05:41:08;;;;;;;;;;;;;;;2.00;74.81;100190.88;4957936;28;1157;-91
2022/04/04 05:43:33;;;;;;;;;;;;;;;2.06;75.30;100195.34;4958074;28;1607;-92
2022/04/04 05:46:17;;;;;;;;;;;;;;;;;;;;;
2022/04/04 05:48:43;;;;;;;;;;;;;;;2.10;75.07;100194.66;4957924;29;640;-92
2022/04/04 05:51:35;;;;;;;;;;;;;;;;;;;;;
2022/04/04 05:54:13;;;;;;;;;;;;;;;;;;;;;
2022/04/04 06:00:25;;;;;;;;;;;;;;;2.24;75.27;100173.66;4961169;28;1473;-92
2022/04/04 06:03:06;;;;;;;;;;;;;;;;;;;;;
2022/04/04 06:05:34;;;;;;;;;;;;;;;2.20;75.12;100167.91;4958420;28;1208;-92
2022/04/04 06:11:17;;;;;;;;;;;;;;;2.28;74.35;100161.34;4961656;28;1335;-92
2022/04/04 11:14:28;;;;;;;;;;;;;;;5.56;63.49;99565.34;4936633;29;1236;-91
2022/04/04 11:17:06;;;;;;;;;;;;;;;5.40;61.94;99576.44;4920531;29;1915;-91
2022/04/04 11:19:47;;;;;;;;;;;;;;;5.53;62.96;99567.78;4937265;29;1359;-91
2022/04/04 11:22:17;;;;;;;;;;;;;;;5.42;62.69;99580.53;4920874;29;1207;-91
2022/04/04 11:24:51;;;;;;;;;;;;;;;5.35;63.56;99565.59;4920071;29;1440;-91
2022/04/04 11:27:26;;;;;;;;;;;;;;;5.33;64.41;99568.56;4920840;29;1430;-91
2022/04/04 11:29:52;;;;;;;;;;;;;;;5.24;66.03;99559.34;4921089;29;1262;-92
2022/04/04 11:32:38;;;;;;;;;;;;;;;5.28;65.24;99563.13;4920566;29;1263;-91
2022/04/04 11:35:14;;;;;;;;;;;;;;;5.23;65.73;99561.22;4920298;29;1351;-91
2022/04/04 11:37:43;;;;;;;;;;;;;;;5.39;66.86;99536.81;4920688;29;1903;-91
2022/04/04 11:40:15;;;;;;;;;;;;;;;5.52;66.11;99550.69;4920098;29;1447;-91
2022/04/04 11:43:02;;;;;;;;;;;;;;;5.54;65.26;99532.22;4920498;29;1227;-92
2022/04/04 11:45:28;;;;;;;;;;;;;;;5.47;65.60;99528.97;4916856;29;1508;-91
2022/04/04 11:48:16;;;;;;;;;;;;;;;;;;;;;
2022/04/04 11:50:56;;;;;;;;;;;;;;;;;;;;;
2022/04/04 11:53:47;;;;;;;;;;;;;;;5.18;68.17;99533.28;4937439;29;546;-91
2022/04/04 11:56:21;;;;;;;;;;;;;;;5.08;68.99;99519.69;4919498;29;1302;-91
2022/04/04 11:58:54;;;;;;;;;;;;;;;4.98;70.14;99530.53;4918932;29;1910;-92
2022/04/04 12:01:21;;;;;;;;;;;;;;;5.02;72.09;99515.34;4920171;29;1393;-91
2022/04/04 12:04:14;;;;;;;;;;;;;;;5.07;71.50;99512.63;4919612;29;1384;-91
2022/04/04 12:07:13;;;;;;;;;;;;;;;5.22;71.56;99518.09;4919096;29;1265;-91
2022/04/04 12:09:46;;;;;;;;;;;;;;;5.11;71.07;99513.72;4936809;29;1166;-91
2022/04/04 12:15:43;;;;;;;;;;;;;;;4.70;73.25;99510.91;4936530;29;1224;-91
2022/04/04 12:18:09;;;;;;;;;;;;;;;4.62;75.10;99505.19;4919322;29;1894;-91
2022/04/04 12:20:44;;;;;;;;;;;;;;;4.54;75.75;99492.97;4915551;29;1290;-91
2022/04/04 12:26:32;;;;;;;;;;;;;;;4.28;77.00;99491.22;4937283;29;577;-91
2022/04/04 12:29:08;;;;;;;;;;;;;;;4.28;77.31;99493.94;4919067;29;1285;-90
2022/04/04 12:32:03;;;;;;;;;;;;;;;4.39;77.43;99485.59;4920031;29;1390;-91
2022/04/04 12:34:36;;;;;;;;;;;;;;;4.41;76.43;99466.38;4932234;29;1374;-91
2022/04/04 12:37:13;;;;;;;;;;;;;;;4.36;77.63;99480.72;4919653;29;1949;-91
2022/04/04 12:39:45;;;;;;;;;;;;;;;4.39;78.03;99468.53;4919873;29;1226;-92
2022/04/04 12:48:24;;;;;;;;;;;;;;;4.38;78.31;99446.03;4936877;29;597;-91
2022/04/04 12:51:13;;;;;;;;;;;;;;;4.48;79.72;99445.28;4919642;29;1408;-91
2022/04/04 12:53:53;;;;;;;;;;;;;;;4.37;79.49;99440.88;4919190;29;1384;-91
2022/04/04 12:56:44;;;;;;;;;;;;;;;4.41;80.15;99428.44;4919252;29;1479;-91
2022/04/04 12:59:30;;;;;;;;;;;;;;;;;;;;;
2022/04/04 13:02:09;;;;;;;;;;;;;;;4.38;79.01;99432.50;4919184;29;1294;-91
2022/04/04 13:04:35;;;;;;;;;;;;;;;4.34;78.97;99425.19;4909364;29;1410;-90
2022/04/04 13:13:39;;;;;;;;;;;;;;;4.50;78.46;99419.53;4917345;29;1398;-91
2022/04/04 13:22:25;;;;;;;;;;;;;;;4.41;78.11;99423.84;4923288;29;1271;-91
2022/04/04 13:25:02;;;;;;;;;;;;;;;4.34;79.19;99427.91;4901630;29;1437;-91
2022/04/04 13:27:58;;;;;;;;;;;;;;;4.37;79.28;99422.75;4918665;29;1385;-91
2022/04/04 13:30:22;;;;;;;;;;;;;;;4.44;79.22;99411.66;4925168;29;1381;-91
2022/04/04 13:32:51;;;;;;;;;;;;;;;4.31;79.00;99429.22;4907240;29;1390;-91
2022/04/04 13:38:53;;;;;;;;;;;;;;;4.21;80.30;99399.41;4917021;29;1899;-91
2022/04/04 13:41:28;;;;;;;;;;;;;;;4.30;80.13;99400.50;4921878;29;1327;-90
2022/04/04 13:44:08;;;;;;;;;;;;;;;4.28;80.39;99389.13;4910363;29;1642;-91
2022/04/04 13:49:48;;;;;;;;;;;;;;;4.47;79.60;99384.84;4929861;29;1340;-90
2022/04/04 13:52:40;;;;;;;;;;;;;;;4.40;80.71;99368.03;4922528;29;1491;-92
2022/04/04 14:36:21;;;;;;;;;;;;;;;4.36;82.15;99344.44;4956569;29;1668;-89
2022/04/04 14:38:46;;;;;;;;;;;;;;;4.35;83.16;99326.56;4956232;29;1910;-90
2022/04/04 14:41:11;;;;;;;;;;;;;;;4.39;82.79;99327.66;4956017;29;1332;-89
2022/04/04 14:43:38;;;;;;;;;;;;;;;4.45;81.98;99316.56;4955685;28;1383;-89
2022/04/04 14:46:03;;;;;;;;;;;;;;;4.46;81.58;99325.50;4956221;28;1217;-89
2022/04/04 14:48:28;;;;;;;;;;;;;;;4.36;81.29;99322.75;4955940;28;1407;-89
2022/04/04 14:50:53;;;;;;;;;;;;;;;4.27;82.86;99313.53;4956729;28;1020;-89
2022/04/04 14:53:18;;;;;;;;;;;;;;;4.36;83.27;99298.38;4955944;28;1412;-90
2022/04/04 14:55:43;;;;;;;;;;;;;;;4.45;82.89;99291.34;4956151;28;1447;-90
2022/04/04 14:58:09;;;;;;;;;;;;;;;4.42;82.79;99300.81;4960589;29;1945;-91
2022/04/04 15:00:34;;;;;;;;;;;;;;;4.45;82.33;99284.03;4957336;28;896;-92
2022/04/04 15:03:00;;;;;;;;;;;;;;;4.48;81.64;99277.28;4953824;28;1312;-90
2022/04/04 15:05:27;;;;;;;;;;;;;;;4.43;80.74;99274.53;4950009;29;1466;-89
2022/04/04 15:07:52;;;;;;;;;;;;;;;4.42;81.89;99267.53;4956170;29;1568;-89
2022/04/04 15:10:18;;;;;;;;;;;;;;;4.47;82.64;99276.47;4946835;29;1308;-91
2022/04/04 15:12:44;;;;;;;;;;;;;;;4.42;81.73;99271.03;4944045;29;1442;-90
2022/04/04 15:15:09;;;;;;;;;;;;;;;4.43;82.11;99279.97;4968338;28;1335;-89
2022/04/04 15:17:34;;;;;;;;;;;;;;;4.44;82.27;99270.75;4957692;28;1918;-91
2022/04/04 15:20:00;;;;;;;;;;;;;;;4.43;81.77;99274.53;4957468;29;1300;-92
2022/04/04 15:22:26;;;;;;;;;;;;;;;4.48;81.51;99275.38;4955522;28;1356;-91
2022/04/04 15:24:51;;;;;;;;;;;;;;;4.40;81.66;99275.09;4952867;29;1367;-91
2022/04/04 15:27:16;;;;;;;;;;;;;;;4.36;81.14;99266.69;4940122;29;1336;-93
2022/04/04 15:29:42;;;;;;;;;;;;;;;4.46;81.18;99260.47;4955846;29;882;-91
2022/04/04 15:32:07;;;;;;;;;;;;;;;4.45;81.04;99266.97;4954784;28;1541;-91
2022/04/04 15:34:33;;;;;;;;;;;;;;;4.41;80.79;99255.06;4956549;28;1273;-92
2022/04/04 15:36:58;;;;;;;;;;;;;;;4.36;82.80;99249.63;4955429;29;1147;-91
2022/04/04 15:39:24;;;;;;;;;;;;;;;4.42;83.19;99254.00;4955884;29;1902;-92
2022/04/04 15:41:55;;;;;;;;;;;;;;;4.44;82.50;99243.66;4955144;29;1552;-92
2022/04/04 15:44:21;;;;;;;;;;;;;;;4.43;82.11;99250.16;4955187;28;1289;-92
2022/04/04 15:46:46;;;;;;;;;;;;;;;4.46;82.46;99264.00;4955282;28;1217;-92
2022/04/04 15:49:11;;;;;;;;;;;;;;;4.44;81.97;99249.91;4955430;28;996;-91
2022/04/04 15:51:37;;;;;;;;;;;;;;;4.43;82.24;99252.88;4955491;29;1249;-92
2022/04/04 15:54:03;;;;;;;;;;;;;;;4.44;82.42;99243.66;4954956;28;1416;-91
2022/04/04 15:56:29;;;;;;;;;;;;;;;4.52;82.31;99235.00;4955101;28;1222;-92
2022/04/04 15:58:54;;;;;;;;;;;;;;;4.48;82.70;99237.44;4954987;29;1899;-92
2022/04/04 16:01:21;;;;;;;;;;;;;;;4.51;82.22;99245.00;4955060;29;1311;-92
2022/04/04 16:03:47;;;;;;;;;;;;;;;4.53;81.90;99228.50;4954104;28;1283;-92
2022/04/04 16:06:12;;;;;;;;;;;;;;;4.51;82.19;99227.94;4955164;29;1206;-92
2022/04/04 16:08:38;;;;;;;;;;;;;;;4.49;81.95;99217.41;4955284;29;1238;-92
2022/04/04 16:11:03;;;;;;;;;;;;;;;4.53;82.16;99220.38;4954899;29;1405;-92
2022/04/04 16:13:28;;;;;;;;;;;;;;;4.59;82.15;99230.13;4954861;28;1269;-92
2022/04/04 16:15:53;;;;;;;;;;;;;;;4.50;81.76;99232.59;4954986;28;1210;-91
2022/04/04 16:18:18;;;;;;;;;;;;;;;4.53;82.37;99220.38;4955146;28;1870;-92
2022/04/04 16:20:44;;;;;;;;;;;;;;;4.59;82.91;99218.47;4955145;29;1022;-92
2022/04/04 16:23:09;;;;;;;;;;;;;;;4.57;82.11;99224.16;4954704;28;1889;-92
2022/04/04 16:25:34;;;;;;;;;;;;;;;4.53;82.36;99212.22;4954793;29;1371;-93
2022/04/04 16:27:59;;;;;;;;;;;;;;;4.51;82.21;99217.91;4955004;28;987;-92
2022/04/04 16:30:47;;;;;;;;;;;;;;;4.53;82.04;99210.34;4954832;28;1268;-92
2022/04/04 16:33:12;;;;;;;;;;;;;;;4.51;82.72;99217.91;4954733;29;1237;-92
2022/04/04 16:35:38;;;;;;;;;;;;;;;4.60;82.89;99215.47;4954600;28;1222;-91
2022/04/04 16:38:04;;;;;;;;;;;;;;;4.65;82.35;99209.25;4954944;29;1960;-92
2022/04/04 16:40:29;;;;;;;;;;;;;;;4.56;82.27;99209.00;4954727;28;1418;-92
2022/04/04 16:42:54;;;;;;;;;;;;;;;4.51;82.49;99208.97;4954981;29;1279;-92
2022/04/04 16:45:19;;;;;;;;;;;;;;;4.54;82.26;99203.03;4954694;29;1222;-92
2022/04/04 16:47:45;;;;;;;;;;;;;;;4.54;82.80;99217.38;4955559;29;1356;-91
2022/04/04 16:50:10;;;;;;;;;;;;;;;4.61;83.27;99217.09;4955470;29;1182;-91
2022/04/04 16:52:36;;;;;;;;;;;;;;;4.60;82.85;99215.47;4955190;29;1213;-92
2022/04/04 16:55:02;;;;;;;;;;;;;;;4.53;83.24;99215.75;4955053;29;1237;-90
2022/04/04 16:57:27;;;;;;;;;;;;;;;4.58;84.14;99217.66;4955107;28;1898;-92
2022/04/04 16:59:52;;;;;;;;;;;;;;;4.59;83.87;99221.19;4954560;29;1043;-92
2022/04/04 17:02:18;;;;;;;;;;;;;;;4.52;83.59;99214.13;4954572;29;1308;-91
2022/04/04 17:04:43;;;;;;;;;;;;;;;4.52;84.64;99213.31;4954467;29;1269;-91
2022/04/04 17:07:08;;;;;;;;;;;;;;;4.51;84.83;99207.09;4954558;28;1135;-91
2022/04/04 17:09:33;;;;;;;;;;;;;;;4.53;84.49;99215.75;4954512;28;973;-91
2022/04/04 17:11:59;;;;;;;;;;;;;;;4.53;84.83;99210.34;4955019;28;1234;-91
2022/04/04 17:14:24;;;;;;;;;;;;;;;4.52;84.65;99208.72;4955505;28;1237;-89
2022/04/04 17:16:49;;;;;;;;;;;;;;;4.53;84.66;99201.41;4958086;29;1221;-91
2022/04/04 17:19:16;;;;;;;;;;;;;;;4.50;84.44;99201.97;4957916;28;1894;-90
2022/04/04 17:21:41;;;;;;;;;;;;;;;4.54;84.48;99203.03;4957728;29;1366;-90
2022/04/04 17:24:11;;;;;;;;;;;;;;;4.59;85.23;99196.81;4958081;29;1250;-90
2022/04/04 17:26:36;;;;;;;;;;;;;;;4.63;85.03;99203.28;4957840;29;1241;-91
2022/04/04 17:29:01;;;;;;;;;;;;;;;4.60;84.66;99193.78;4957760;28;1220;-89
2022/04/04 17:31:26;;;;;;;;;;;;;;;4.61;85.12;99197.31;4957806;28;1202;-91
2022/04/04 17:33:52;;;;;;;;;;;;;;;4.59;84.94;99197.63;4957821;29;1245;-91
2022/04/04 17:36:17;;;;;;;;;;;;;;;4.57;84.94;99192.47;4957592;28;1206;-91
2022/04/04 17:38:42;;;;;;;;;;;;;;;4.52;85.31;99175.38;4957461;28;1895;-91
2022/04/04 17:41:08;;;;;;;;;;;;;;;4.62;84.92;99183.50;4957851;28;1408;-91
2022/04/04 17:43:33;;;;;;;;;;;;;;;4.60;85.64;99188.38;4957421;29;1270;-91
2022/04/04 17:45:59;;;;;;;;;;;;;;;4.63;85.46;99190.56;4957484;29;1103;-91
2022/04/04 17:48:24;;;;;;;;;;;;;;;4.64;85.24;99181.34;4957589;29;1233;-91
2022/04/04 17:50:49;;;;;;;;;;;;;;;4.67;84.82;99193.53;4957550;28;1228;-91
2022/04/04 17:53:14;;;;;;;;;;;;;;;4.68;84.96;99181.63;4957389;28;1301;-91
2022/04/04 17:55:39;;;;;;;;;;;;;;;4.73;84.36;99187.00;4957240;28;1364;-91
2022/04/04 17:58:05;;;;;;;;;;;;;;;4.68;84.64;99187.81;4953878;29;1899;-91
2022/04/04 18:00:36;;;;;;;;;;;;;;;4.65;84.82;99191.09;4938028;29;1198;-91
2022/04/04 18:03:04;;;;;;;;;;;;;;;4.64;85.18;99173.22;4954058;29;1399;-91
2022/04/04 18:05:29;;;;;;;;;;;;;;;4.67;85.09;99186.22;4937990;29;1328;-91
2022/04/04 18:07:55;;;;;;;;;;;;;;;4.72;85.02;99175.34;4938122;29;1038;-90
2022/04/04 18:10:20;;;;;;;;;;;;;;;4.73;85.46;99179.69;4939547;29;935;-91
2022/04/04 18:12:45;;;;;;;;;;;;;;;4.76;85.63;99175.63;4939253;29;1208;-90
2022/04/04 18:15:11;;;;;;;;;;;;;;;4.76;85.02;99184.56;4938179;29;1288;-91
2022/04/04 18:17:36;;;;;;;;;;;;;;;4.77;85.08;99178.03;4937813;29;1898;-92
2022/04/04 18:20:03;;;;;;;;;;;;;;;4.75;85.39;99182.94;4946303;29;1581;-92
2022/04/04 18:22:28;;;;;;;;;;;;;;;4.80;85.05;99184.81;4957060;29;1233;-91
2022/04/04 18:27:56;;;;;;;;;;;;;;;4.80;84.76;99192.97;4957496;29;617;-92
2022/04/04 18:30:21;;;;;;;;;;;;;;;4.83;84.77;99185.09;4956294;29;1608;-91
2022/04/04 18:32:46;;;;;;;;;;;;;;;4.85;85.17;99199.16;4956119;28;1303;-91
2022/04/04 18:35:12;;;;;;;;;;;;;;;4.86;85.44;99179.09;4956346;28;1328;-92
2022/04/04 18:37:39;;;;;;;;;;;;;;;4.88;85.30;99190.50;4957092;28;1960;-92
2022/04/04 18:40:05;;;;;;;;;;;;;;;4.91;85.55;99189.16;4956730;29;1263;-92
2022/04/04 18:42:30;;;;;;;;;;;;;;;4.92;85.52;99175.31;4956155;28;1273;-92
2022/04/04 18:44:56;;;;;;;;;;;;;;;4.94;85.04;99183.16;4956104;28;1269;-92
2022/04/04 18:47:21;;;;;;;;;;;;;;;4.98;85.20;99184.25;4956391;29;1348;-92
2022/04/04 18:49:46;;;;;;;;;;;;;;;5.04;85.21;99179.59;4956403;28;1123;-92
2022/04/04 18:52:13;;;;;;;;;;;;;;;5.07;84.63;99187.19;4957525;29;1353;-93
2022/04/04 18:54:39;;;;;;;;;;;;;;;5.08;84.58;99176.06;4956777;28;1245;-92
2022/04/04 18:57:05;;;;;;;;;;;;;;;5.13;84.87;99191.50;4956217;28;1289;-91
2022/04/04 18:59:30;;;;;;;;;;;;;;;5.10;84.94;99176.63;4956051;29;1891;-92
2022/04/04 19:01:59;;;;;;;;;;;;;;;5.08;85.95;99183.41;4955902;29;1222;-92
2022/04/04 19:04:24;;;;;;;;;;;;;;;5.04;85.97;99185.03;4954340;28;1310;-91
2022/04/04 19:06:50;;;;;;;;;;;;;;;5.08;86.19;99175.25;4952468;28;1289;-92
2022/04/04 19:09:15;;;;;;;;;;;;;;;5.07;86.60;99179.06;4936750;29;1218;-92
2022/04/04 19:11:40;;;;;;;;;;;;;;;5.09;86.96;99176.88;4945213;29;1449;-92
2022/04/04 19:14:05;;;;;;;;;;;;;;;5.10;86.81;99168.47;4955473;28;1275;-92
2022/04/04 19:16:35;;;;;;;;;;;;;;;5.11;87.02;99163.84;4955528;29;1438;-92
2022/04/04 19:19:00;;;;;;;;;;;;;;;5.14;86.46;99177.66;4955174;28;1957;-91
2022/04/04 19:21:27;;;;;;;;;;;;;;;5.19;86.45;99182.28;4955087;29;1198;-91
2022/04/04 19:23:52;;;;;;;;;;;;;;;5.18;86.85;99173.34;4955603;28;1396;-92
2022/04/04 19:26:17;;;;;;;;;;;;;;;5.17;86.82;99174.41;4955376;29;1152;-92
2022/04/04 19:28:42;;;;;;;;;;;;;;;5.20;86.73;99173.03;4955116;29;1328;-91
2022/04/04 19:31:07;;;;;;;;;;;;;;;5.25;86.49;99178.44;4955215;28;1393;-91
2022/04/04 19:33:33;;;;;;;;;;;;;;;5.27;86.56;99170.84;4954702;28;1744;-92
2022/04/04 19:35:58;;;;;;;;;;;;;;;5.27;86.28;99179.00;4947873;28;1262;-90
2022/04/04 19:38:24;;;;;;;;;;;;;;;5.28;86.85;99188.72;4954506;28;1898;-91
2022/04/04 19:40:49;;;;;;;;;;;;;;;5.30;86.33;99181.94;4954784;28;1480;-92
2022/04/04 19:43:16;;;;;;;;;;;;;;;5.32;86.62;99187.91;4953958;29;1426;-92
2022/04/04 19:45:42;;;;;;;;;;;;;;;5.33;86.80;99180.59;4956275;28;885;-91
2022/04/04 19:48:07;;;;;;;;;;;;;;;5.35;86.98;99189.25;4954725;29;1221;-92
2022/04/04 19:50:32;;;;;;;;;;;;;;;5.33;86.81;99183.28;4954789;28;1475;-91
2022/04/04 19:52:57;;;;;;;;;;;;;;;5.33;86.79;99184.09;4954263;28;1641;-91
2022/04/04 19:55:22;;;;;;;;;;;;;;;5.38;87.01;99185.16;4954240;29;1737;-92
2022/04/04 19:57:48;;;;;;;;;;;;;;;5.38;87.28;99182.44;4935800;29;1953;-91
2022/04/04 20:00:13;;;;;;;;;;;;;;;5.36;87.13;99188.16;4949598;29;1657;-92
2022/04/04 20:02:50;;;;;;;;;;;;;;;5.35;86.94;99183.84;4953285;28;1357;-92
2022/04/04 20:05:15;;;;;;;;;;;;;;;5.35;87.68;99194.69;4952198;29;1476;-91
2022/04/04 20:07:41;;;;;;;;;;;;;;;5.38;87.89;99199.53;4947822;28;1455;-92
2022/04/04 20:10:07;;;;;;;;;;;;;;;5.39;87.26;99190.31;4935180;29;1234;-90
2022/04/04 20:12:35;;;;;;;;;;;;;;;5.42;86.79;99200.63;4947524;28;1948;-91
2022/04/04 20:15:02;;;;;;;;;;;;;;;5.43;87.24;99204.97;4953882;28;1507;-91
2022/04/04 20:17:27;;;;;;;;;;;;;;;5.43;87.71;99204.97;4959743;28;1986;-91
2022/04/04 20:19:52;;;;;;;;;;;;;;;5.43;88.11;99202.25;4954916;29;1232;-92
2022/04/04 20:22:17;;;;;;;;;;;;;;;5.41;88.40;99196.28;4955107;29;1155;-92
2022/04/04 20:24:42;;;;;;;;;;;;;;;5.41;88.87;99198.19;4954758;28;1468;-92
2022/04/04 20:27:08;;;;;;;;;;;;;;;5.41;88.65;99193.56;4955200;28;1312;-91
2022/04/04 20:29:33;;;;;;;;;;;;;;;5.40;88.73;99199.25;4954486;29;1461;-92
2022/04/04 20:32:04;;;;;;;;;;;;;;;5.39;88.62;99201.16;4954885;29;1384;-91
2022/04/04 20:34:30;;;;;;;;;;;;;;;5.44;88.67;99195.72;4954699;28;1344;-92
2022/04/04 20:36:55;;;;;;;;;;;;;;;5.44;89.08;99193.03;4954385;29;1331;-91
2022/04/04 20:39:43;;;;;;;;;;;;;;;5.44;89.08;99198.44;4943921;28;1891;-92
2022/04/04 20:42:08;;;;;;;;;;;;;;;5.43;89.19;99201.44;4952239;28;1168;-93
2022/04/04 20:44:34;;;;;;;;;;;;;;;5.44;88.58;99194.91;4936607;29;1191;-93
2022/04/04 20:46:59;;;;;;;;;;;;;;;5.48;89.07;99195.97;4935562;29;945;-92
2022/04/04 20:49:26;;;;;;;;;;;;;;;5.46;88.98;99201.66;4942796;29;1517;-92
2022/04/04 20:51:51;;;;;;;;;;;;;;;5.48;88.55;99206.81;4964496;29;1486;-92
2022/04/04 20:54:16;;;;;;;;;;;;;;;5.43;88.41;99199.53;4976673;28;1435;-92
2022/04/04 20:56:41;;;;;;;;;;;;;;;5.42;88.70;99197.91;4960424;28;1513;-93
2022/04/04 20:59:06;;;;;;;;;;;;;;;5.44;88.85;99195.72;4952385;29;1946;-93
2022/04/04 21:01:31;;;;;;;;;;;;;;;5.47;88.97;99197.06;4971314;28;1402;-93
2022/04/04 21:03:57;;;;;;;;;;;;;;;5.47;88.92;99200.59;4975266;28;1234;-93
2022/04/04 21:06:22;;;;;;;;;;;;;;;5.42;89.17;99186.25;4979183;28;1392;-91
2022/04/04 21:08:49;;;;;;;;;;;;;;;5.42;88.86;99189.78;4981462;28;1413;-93
2022/04/04 21:11:14;;;;;;;;;;;;;;;5.44;88.80;99195.72;4982746;28;1195;-91
2022/04/04 21:13:43;;;;;;;;;;;;;;;5.48;88.95;99193.25;4983190;28;1399;-91
2022/04/04 21:16:08;;;;;;;;;;;;;;;5.52;89.33;99194.34;4982775;28;1285;-93
2022/04/04 21:18:33;;;;;;;;;;;;;;;5.49;89.13;99192.16;4973433;28;1878;-91
2022/04/04 21:21:13;;;;;;;;;;;;;;;5.48;88.56;99193.25;4962683;28;1171;-90
2022/04/04 21:23:41;;;;;;;;;;;;;;;5.48;89.15;99182.41;4962637;28;1348;-91
2022/04/04 21:26:06;;;;;;;;;;;;;;;5.52;89.07;99189.72;4962339;28;1246;-92
2022/04/04 21:28:32;;;;;;;;;;;;;;;5.52;89.29;99188.91;4967412;28;1577;-93
2022/04/04 21:30:57;;;;;;;;;;;;;;;5.54;89.10;99187.53;4980621;28;1249;-91
2022/04/04 21:33:22;;;;;;;;;;;;;;;5.54;88.56;99203.81;4981640;28;1494;-91
2022/04/04 21:35:48;;;;;;;;;;;;;;;5.54;88.75;99190.22;4980173;28;1660;-93
2022/04/04 21:38:17;;;;;;;;;;;;;;;5.58;89.38;99193.22;4982389;28;1883;-90
2022/04/04 21:40:42;;;;;;;;;;;;;;;5.58;88.85;99199.47;4981998;28;1222;-91
2022/04/04 21:43:07;;;;;;;;;;;;;;;5.59;88.68;99189.41;4981888;28;1360;-90
2022/04/04 21:45:32;;;;;;;;;;;;;;;5.58;88.49;99194.03;4979593;28;1314;-92
2022/04/04 21:47:58;;;;;;;;;;;;;;;5.57;89.29;99191.59;4982634;28;1309;-90
2022/04/04 21:50:23;;;;;;;;;;;;;;;5.57;88.67;99199.72;4980551;28;1372;-92
2022/04/04 21:52:49;;;;;;;;;;;;;;;5.56;89.28;99198.91;4981855;28;1281;-91
2022/04/04 21:55:14;;;;;;;;;;;;;;;5.57;89.70;99192.41;4978418;28;1478;-90
2022/04/04 21:57:39;;;;;;;;;;;;;;;5.60;89.68;99193.75;4962834;28;1875;-90
2022/04/04 22:00:10;;;;;;;;;;;;;;;5.58;89.28;99187.78;4981928;28;1315;-91
2022/04/04 22:02:36;;;;;;;;;;;;;;;5.59;89.70;99190.22;4982225;28;1469;-91
2022/04/04 22:05:01;;;;;;;;;;;;;;;5.59;90.02;99192.13;4982078;28;1107;-91
2022/04/04 22:07:26;;;;;;;;;;;;;;;5.56;89.46;99187.25;4980918;28;1238;-92
2022/04/04 22:09:52;;;;;;;;;;;;;;;5.56;89.67;99190.78;4981178;28;1544;-92
2022/04/04 22:12:17;;;;;;;;;;;;;;;5.57;89.58;99191.59;4980861;28;1277;-91
2022/04/04 22:14:48;;;;;;;;;;;;;;;5.56;89.80;99182.63;4981918;28;1439;-91
2022/04/04 22:17:13;;;;;;;;;;;;;;;5.56;89.41;99190.78;4981858;28;1335;-90
2022/04/04 22:19:39;;;;;;;;;;;;;;;5.61;89.32;99182.59;4981348;28;1875;-92
2022/04/04 22:22:07;;;;;;;;;;;;;;;5.60;89.75;99185.59;4980008;28;1281;-91
2022/04/04 22:24:33;;;;;;;;;;;;;;;5.57;89.47;99181.53;4980534;28;1202;-94
2022/04/04 22:26:58;;;;;;;;;;;;;;;5.59;89.92;99184.78;4978750;28;1469;-92
2022/04/04 22:29:24;;;;;;;;;;;;;;;5.62;89.93;99181.50;4979310;28;1273;-91
2022/04/04 22:31:49;;;;;;;;;;;;;;;5.63;89.28;99183.13;4970967;28;1132;-93
2022/04/04 22:34:14;;;;;;;;;;;;;;;5.59;89.85;99167.69;4978588;28;1213;-93
2022/04/04 22:36:40;;;;;;;;;;;;;;;5.58;89.89;99166.88;4973634;29;1548;-92
2022/04/04 22:39:05;;;;;;;;;;;;;;;5.57;89.39;99173.41;4977659;28;1972;-91
2022/04/04 22:41:30;;;;;;;;;;;;;;;5.60;90.04;99170.13;4979077;28;1305;-91
2022/04/04 22:43:55;;;;;;;;;;;;;;;5.60;89.13;99167.41;4978983;28;1307;-93
2022/04/04 22:46:20;;;;;;;;;;;;;;;5.62;89.40;99173.34;4968275;28;1333;-91
2022/04/04 22:48:46;;;;;;;;;;;;;;;5.63;89.38;99169.56;4978054;28;1115;-92
2022/04/04 22:51:12;;;;;;;;;;;;;;;5.61;88.87;99169.00;4957812;28;1398;-93
2022/04/04 22:53:37;;;;;;;;;;;;;;;5.61;89.57;99170.94;4957356;28;1284;-90
2022/04/04 22:56:02;;;;;;;;;;;;;;;5.63;89.48;99174.97;4971458;28;1347;-90
2022/04/04 22:58:27;;;;;;;;;;;;;;;5.62;89.69;99159.78;4973420;28;1878;-91
2022/04/04 23:00:53;;;;;;;;;;;;;;;5.65;89.98;99148.38;4980027;28;1103;-92
2022/04/04 23:03:18;;;;;;;;;;;;;;;5.64;89.53;99151.38;4958458;28;1450;-93
2022/04/04 23:05:43;;;;;;;;;;;;;;;5.66;89.31;99152.72;4961235;29;1438;-93
2022/04/04 23:08:08;;;;;;;;;;;;;;;5.65;89.22;99147.56;4976881;28;1032;-91
2022/04/04 23:10:33;;;;;;;;;;;;;;;5.65;90.09;99150.28;4975730;28;1529;-93
2022/04/04 23:12:59;;;;;;;;;;;;;;;5.61;89.55;99154.66;4975760;28;1377;-92
2022/04/04 23:15:24;;;;;;;;;;;;;;;5.63;89.95;99150.56;4975507;28;1314;-93
2022/04/04 23:17:53;;;;;;;;;;;;;;;5.66;89.71;99149.19;4956979;28;1969;-93
2022/04/04 23:20:18;;;;;;;;;;;;;;;5.61;89.94;99155.44;4957883;29;1156;-94
2022/04/04 23:22:43;;;;;;;;;;;;;;;5.61;90.09;99163.59;4970559;29;1525;-90
2022/04/04 23:25:09;;;;;;;;;;;;;;;5.65;90.22;99153.00;4977500;28;1485;-93
2022/04/04 23:27:34;;;;;;;;;;;;;;;5.68;89.88;99150.53;4976138;28;1052;-94
2022/04/04 23:29:59;;;;;;;;;;;;;;;5.71;89.51;99146.44;4970828;28;1308;-92
2022/04/04 23:32:26;;;;;;;;;;;;;;;5.72;90.04;99139.91;4957283;28;1155;-92
2022/04/04 23:34:55;;;;;;;;;;;;;;;5.69;89.29;99145.94;4960491;28;1376;-92
2022/04/04 23:37:20;;;;;;;;;;;;;;;5.67;90.00;99138.06;4960133;28;1944;-91
2022/04/04 23:39:45;;;;;;;;;;;;;;;5.69;89.89;99141.31;4958293;29;989;-93
2022/04/04 23:42:11;;;;;;;;;;;;;;;5.73;89.69;99138.81;4976423;29;1509;-93
2022/04/04 23:44:39;;;;;;;;;;;;;;;5.75;89.47;99133.94;4979964;28;1170;-93
2022/04/04 23:47:04;;;;;;;;;;;;;;;5.77;89.38;99129.03;4979702;28;1131;-91
2022/04/04 23:49:31;;;;;;;;;;;;;;;5.75;89.35;99130.41;4980118;28;1532;-92
2022/04/04 23:52:04;;;;;;;;;;;;;;;5.78;90.33;99130.66;4979221;28;1127;-92
2022/04/04 23:54:32;;;;;;;;;;;;;;;5.80;89.26;99125.75;4978434;28;1210;-91
2022/04/04 23:57:00;;;;;;;;;;;;;;;5.81;90.10;99123.84;4978120;28;1198;-93
2022/04/04 23:59:37;;;;;;;;;;;;;;;5.80;89.89;99125.75;4977594;28;1875;-91
